Time;durP1;ratioP1;P1;durP2;ratioP2;P2;SDS_P1;SDS_P2;PMS_P1;PMS_P2;Temp;Humidity;BMP_temperature;BMP_pressure;BME280_temperature;BME280_humidity;BME280_pressure;Samples;Min_cycle;Max_cycle;Signal;HPM_P1;HPM_P2
2023/10/09 00:00:50;;;;;;;;;;;;;;;20.94;53.06;96358.97;10435058;28;2667;-59
2023/10/09 00:05:53;;;;;;;;;;;;;;;20.95;53.44;96359.78;10433312;28;1870;-59
2023/10/09 00:10:53;;;;;;;;;;;;;;;20.93;53.19;96352.13;10432113;28;2207;-59
2023/10/09 00:15:59;;;;;;;;;;;;;;;20.93;53.38;96349.50;10433924;28;1978;-59
2023/10/09 00:21:12;;;;;;;;;;;;;;;20.94;53.41;96337.09;10437519;28;1973;-59
2023/10/09 00:26:16;;;;;;;;;;;;;;;20.94;53.03;96324.72;10442378;28;2168;-59
2023/10/09 00:31:28;;;;;;;;;;;;;;;20.92;53.00;96316.28;10438552;28;2031;-59
2023/10/09 00:36:29;;;;;;;;;;;;;;;20.92;53.34;96305.75;10437876;28;2203;-59
2023/10/09 00:41:30;;;;;;;;;;;;;;;20.92;52.82;96300.47;10437653;28;4672;-58
2023/10/09 00:46:30;;;;;;;;;;;;;;;20.94;52.88;96292.28;10442110;28;2164;-59
2023/10/09 00:51:38;;;;;;;;;;;;;;;20.92;52.67;96287.28;10438775;28;2001;-59
2023/10/09 00:56:39;;;;;;;;;;;;;;;20.91;52.86;96283.09;10436974;28;2024;-59
2023/10/09 01:01:47;;;;;;;;;;;;;;;20.91;52.51;96274.38;10439215;28;2006;-59
2023/10/09 01:07:04;;;;;;;;;;;;;;;20.91;52.85;96263.84;10440022;28;1976;-59
2023/10/09 01:12:04;;;;;;;;;;;;;;;20.90;52.79;96260.41;10440084;28;1995;-59
2023/10/09 01:17:08;;;;;;;;;;;;;;;20.91;52.71;96258.56;10437864;28;1955;-59
2023/10/09 01:22:15;;;;;;;;;;;;;;;20.91;52.42;96256.75;10436148;28;1927;-59
2023/10/09 01:27:16;;;;;;;;;;;;;;;20.90;52.43;96257.78;10433176;28;2613;-59
2023/10/09 01:32:16;;;;;;;;;;;;;;;20.90;52.63;96249.88;10434372;28;2022;-59
2023/10/09 01:37:18;;;;;;;;;;;;;;;20.89;52.33;96247.50;10435075;28;1967;-59
2023/10/09 01:42:33;;;;;;;;;;;;;;;20.90;52.49;96244.59;10437418;28;4700;-59
2023/10/09 01:47:34;;;;;;;;;;;;;;;20.90;52.28;96243.81;10438259;28;1979;-58
2023/10/09 01:52:38;;;;;;;;;;;;;;;20.89;52.63;96235.13;10438128;28;1947;-59
2023/10/09 01:57:39;;;;;;;;;;;;;;;20.89;52.26;96232.50;10433339;28;2152;-57
2023/10/09 02:02:44;;;;;;;;;;;;;;;20.91;52.38;96224.31;10437173;28;1959;-59
2023/10/09 02:07:51;;;;;;;;;;;;;;;20.89;52.14;96211.41;10436543;28;1972;-59
2023/10/09 02:12:57;;;;;;;;;;;;;;;20.89;52.43;96216.69;10434272;28;1993;-59
2023/10/09 02:18:01;;;;;;;;;;;;;;;20.90;52.54;96207.72;10437301;28;2055;-59
2023/10/09 02:23:01;;;;;;;;;;;;;;;20.90;52.49;96206.91;10435298;28;2227;-59
2023/10/09 02:28:05;;;;;;;;;;;;;;;20.90;52.67;96205.06;10437733;28;2414;-59
2023/10/09 02:33:09;;;;;;;;;;;;;;;20.89;52.42;96200.88;10436511;28;2093;-59
2023/10/09 02:38:14;;;;;;;;;;;;;;;20.88;52.16;96194.00;10433703;28;2106;-59
2023/10/09 02:43:17;;;;;;;;;;;;;;;20.88;52.19;96188.75;10432004;28;4602;-59
2023/10/09 02:48:24;;;;;;;;;;;;;;;20.89;52.28;96184.25;10434751;28;1939;-59
2023/10/09 02:53:29;;;;;;;;;;;;;;;20.89;52.27;96177.16;10435213;28;1956;-59
2023/10/09 02:58:31;;;;;;;;;;;;;;;20.89;52.26;96179.00;10439603;28;1967;-59
2023/10/09 03:03:35;;;;;;;;;;;;;;;20.88;52.02;96178.19;10437215;28;2147;-59
2023/10/09 03:08:36;;;;;;;;;;;;;;;20.89;52.05;96168.44;10434530;28;2101;-59
2023/10/09 03:13:37;;;;;;;;;;;;;;;20.88;51.91;96159.75;10433474;28;2068;-59
2023/10/09 03:18:37;;;;;;;;;;;;;;;20.87;51.84;96157.38;10436409;28;2177;-59
2023/10/09 03:23:38;;;;;;;;;;;;;;;20.86;51.79;96143.41;10434988;28;1921;-59
2023/10/09 03:28:38;;;;;;;;;;;;;;;20.86;51.58;96138.16;10435535;28;2633;-59
2023/10/09 03:33:39;;;;;;;;;;;;;;;20.86;51.71;96132.09;10435056;28;2060;-59
2023/10/09 03:38:39;;;;;;;;;;;;;;;20.86;51.67;96135.50;10434691;28;1984;-59
2023/10/09 03:43:43;;;;;;;;;;;;;;;20.85;51.55;96141.84;10430577;28;4598;-59
2023/10/09 03:48:46;;;;;;;;;;;;;;;20.86;51.63;96143.41;10434883;28;2189;-59
2023/10/09 03:53:48;;;;;;;;;;;;;;;20.86;51.80;96146.06;10442412;28;2278;-58
2023/10/09 03:58:49;;;;;;;;;;;;;;;20.86;51.69;96142.63;10444143;28;2007;-59
2023/10/09 04:03:54;;;;;;;;;;;;;;;20.87;51.72;96149.47;10449910;28;1978;-58
2023/10/09 04:08:55;;;;;;;;;;;;;;;20.87;51.84;96146.84;10448150;28;1903;-59
2023/10/09 04:13:59;;;;;;;;;;;;;;;20.86;51.72;96143.41;10448089;28;2473;-59
2023/10/09 04:19:05;;;;;;;;;;;;;;;20.87;51.77;96149.47;10442506;28;2002;-59
2023/10/09 04:29:26;;;;;;;;;;;;;;;20.85;51.77;96136.59;10438288;28;1988;-59
2023/10/09 04:34:34;;;;;;;;;;;;;;;20.85;51.67;96139.22;10442045;28;2033;-59
2023/10/09 04:39:35;;;;;;;;;;;;;;;20.85;51.63;96138.41;10445248;28;2081;-59
2023/10/09 04:44:36;;;;;;;;;;;;;;;20.86;51.56;96137.34;10440957;28;4649;-59
2023/10/09 05:00:46;;;;;;;;;;;;;;;20.84;51.44;96135.00;10437217;28;2706;-58
2023/10/09 05:11:00;;;;;;;;;;;;;;;20.84;51.61;96140.25;10442519;28;2031;-59
2023/10/09 05:16:02;;;;;;;;;;;;;;;20.86;52.03;96143.41;10435812;28;2035;-58
2023/10/09 05:21:45;;;;;;;;;;;;;;;20.84;52.08;96153.44;10440929;28;2107;-58
2023/10/09 05:26:37;;;;;;;;;;;;;;;20.85;52.07;96152.38;10432424;28;1997;-59
2023/10/09 05:31:56;;;;;;;;;;;;;;;20.85;51.95;96162.94;10434802;28;2126;-58
2023/10/09 05:37:10;;;;;;;;;;;;;;;20.85;51.77;96173.47;10436058;28;2112;-59
2023/10/09 05:42:17;;;;;;;;;;;;;;;20.85;51.78;96176.09;10439630;28;4681;-58
2023/10/09 06:03:23;;;;;;;;;;;;;;;20.84;51.78;96161.34;10439348;28;2030;-59
2023/10/09 06:13:46;;;;;;;;;;;;;;;20.84;51.60;96171.06;10437331;28;2186;-58
2023/10/09 06:19:07;;;;;;;;;;;;;;;20.85;51.65;96173.47;10440839;28;1973;-59
2023/10/09 06:24:17;;;;;;;;;;;;;;;20.83;51.87;96172.94;10440056;28;2175;-59
2023/10/09 06:29:35;;;;;;;;;;;;;;;20.84;51.86;96171.88;10437442;28;2530;-59
2023/10/09 06:34:35;;;;;;;;;;;;;;;20.83;51.81;96175.59;10428711;28;2027;-59
2023/10/09 06:39:50;;;;;;;;;;;;;;;20.84;51.52;96176.34;10430612;28;1946;-59
2023/10/09 06:44:53;;;;;;;;;;;;;;;20.84;51.56;96166.59;10432320;28;4472;-57
2023/10/09 06:55:19;;;;;;;;;;;;;;;20.85;51.46;96177.94;10437843;28;1904;-59
2023/10/09 07:11:27;;;;;;;;;;;;;;;20.84;51.64;96189.53;10433819;28;2050;-59
2023/10/09 07:16:38;;;;;;;;;;;;;;;20.86;51.71;96187.41;10436093;28;2653;-57
2023/10/09 07:21:38;;;;;;;;;;;;;;;20.85;51.72;96197.19;10434160;28;1946;-59
2023/10/09 07:26:47;;;;;;;;;;;;;;;20.86;51.55;96200.59;10435126;28;1987;-59
2023/10/09 07:31:56;;;;;;;;;;;;;;;20.85;51.80;96202.47;10433857;28;1964;-59
2023/10/09 07:36:57;;;;;;;;;;;;;;;20.86;51.63;96204.03;10431548;28;1965;-59
2023/10/09 07:42:14;;;;;;;;;;;;;;;20.86;51.71;96201.38;10412312;28;4721;-59
2023/10/09 07:47:19;;;;;;;;;;;;;;;20.86;51.41;96198.75;10436065;28;2002;-59
2023/10/09 07:52:21;;;;;;;;;;;;;;;20.87;51.48;96196.91;10436680;28;2131;-58
2023/10/09 07:57:28;;;;;;;;;;;;;;;20.87;51.58;96200.34;10433273;28;1906;-59
2023/10/09 08:02:32;;;;;;;;;;;;;;;20.89;51.51;96210.63;10436225;28;2561;-59
2023/10/09 08:07:35;;;;;;;;;;;;;;;20.88;51.89;96207.19;10431519;28;1825;-59
2023/10/09 08:12:57;;;;;;;;;;;;;;;20.89;51.88;96216.69;10436048;28;1940;-59
2023/10/09 08:18:09;;;;;;;;;;;;;;;20.88;51.92;96217.72;10433925;28;1910;-59
2023/10/09 08:23:22;;;;;;;;;;;;;;;20.89;51.84;96227.22;10435822;28;1902;-58
2023/10/09 08:38:26;;;;;;;;;;;;;;;20.90;51.91;96230.63;10444401;28;1906;-59
2023/10/09 08:43:30;;;;;;;;;;;;;;;20.89;52.05;96224.59;10437647;28;4681;-58
2023/10/09 08:48:30;;;;;;;;;;;;;;;20.91;52.25;96233.03;10439217;28;1827;-58
2023/10/09 08:53:33;;;;;;;;;;;;;;;20.92;52.23;96234.59;10441120;28;1872;-58
2023/10/09 08:58:36;;;;;;;;;;;;;;;20.92;52.38;96234.59;10442307;28;2126;-58
2023/10/09 09:03:37;;;;;;;;;;;;;;;20.92;51.99;96231.94;10424177;28;2447;-58
2023/10/09 09:08:37;;;;;;;;;;;;;;;20.92;52.13;96229.31;10438601;28;1856;-58
2023/10/09 09:13:40;;;;;;;;;;;;;;;20.92;52.34;96226.69;10438292;28;1873;-57
2023/10/09 09:18:48;;;;;;;;;;;;;;;20.92;52.22;96246.97;10439528;28;1963;-58
2023/10/09 09:24:00;;;;;;;;;;;;;;;20.94;52.26;96244.84;10436112;28;1997;-58
2023/10/09 09:29:01;;;;;;;;;;;;;;;20.93;51.97;96245.94;10442351;28;1904;-58
2023/10/09 09:34:04;;;;;;;;;;;;;;;20.94;52.10;96239.59;10437894;28;1870;-58
2023/10/09 09:39:19;;;;;;;;;;;;;;;20.94;52.27;96245.66;10436045;28;1995;-57
2023/10/09 09:44:21;;;;;;;;;;;;;;;20.94;52.03;96244.84;10433004;28;4646;-58
2023/10/09 09:49:22;;;;;;;;;;;;;;;20.94;52.09;96240.38;10435401;28;2521;-58
2023/10/09 09:54:24;;;;;;;;;;;;;;;20.95;52.37;96247.25;10434336;28;1819;-57
2023/10/09 09:59:27;;;;;;;;;;;;;;;20.97;51.93;96252.25;10434218;28;2025;-57
2023/10/09 10:04:28;;;;;;;;;;;;;;;20.95;51.96;96257.78;10440729;28;1906;-57
2023/10/09 10:09:38;;;;;;;;;;;;;;;20.96;52.39;96259.34;10432153;28;1881;-59
2023/10/09 10:14:58;;;;;;;;;;;;;;;20.95;52.13;96252.53;10439299;28;1854;-59
2023/10/09 10:25:48;;;;;;;;;;;;;;;20.96;52.24;96256.72;10433556;28;1874;-60
2023/10/09 10:30:51;;;;;;;;;;;;;;;20.98;52.06;96257.25;10435109;28;2026;-59
2023/10/09 10:40:57;;;;;;;;;;;;;;;20.98;52.11;96249.34;10436947;28;4829;-58
2023/10/09 10:46:01;;;;;;;;;;;;;;;20.99;52.16;96245.66;10434356;28;2077;-59
2023/10/09 10:51:02;;;;;;;;;;;;;;;21.00;51.92;96244.59;10437059;28;1902;-59
2023/10/09 11:01:15;;;;;;;;;;;;;;;21.00;52.12;96239.31;10437937;28;1971;-60
2023/10/09 11:06:17;;;;;;;;;;;;;;;21.00;51.85;96234.06;10435547;28;1900;-59
2023/10/09 11:11:19;;;;;;;;;;;;;;;21.00;51.96;96239.31;10432754;28;1890;-59
2023/10/09 11:21:40;;;;;;;;;;;;;;;21.03;51.31;96228.31;10436730;28;1865;-59
2023/10/09 11:26:40;;;;;;;;;;;;;;;21.04;51.47;96229.09;10433332;28;1930;-59
2023/10/09 11:31:45;;;;;;;;;;;;;;;21.05;51.65;96218.28;10435193;28;1964;-59
2023/10/09 11:36:52;;;;;;;;;;;;;;;21.08;51.42;96229.34;10450188;28;1999;-58
2023/10/09 11:41:59;;;;;;;;;;;;;;;21.08;51.49;96224.06;10435610;28;4678;-59
2023/10/09 11:52:35;;;;;;;;;;;;;;;21.08;51.48;96213.53;10418499;28;2309;-59
2023/10/09 11:57:35;;;;;;;;;;;;;;;21.06;51.56;96214.56;10431678;28;1910;-59
2023/10/09 12:02:43;;;;;;;;;;;;;;;21.08;51.48;96218.81;10439755;28;1889;-58
2023/10/09 12:07:47;;;;;;;;;;;;;;;21.07;51.41;96207.47;10453918;28;1873;-59
2023/10/09 12:12:48;;;;;;;;;;;;;;;21.07;51.63;96212.75;10441412;28;1885;-59
2023/10/09 12:17:49;;;;;;;;;;;;;;;21.06;51.23;96216.44;10442371;28;2574;-59
2023/10/09 12:22:49;;;;;;;;;;;;;;;21.05;51.25;96213.00;10440354;28;1903;-58
2023/10/09 12:27:50;;;;;;;;;;;;;;;21.05;51.30;96207.75;10441452;28;1842;-59
2023/10/09 12:32:50;;;;;;;;;;;;;;;21.05;51.20;96207.75;10442705;28;1905;-59
2023/10/09 12:37:51;;;;;;;;;;;;;;;21.05;51.23;96210.38;10442369;28;1982;-57
2023/10/09 12:42:52;;;;;;;;;;;;;;;21.04;51.32;96216.69;10444513;28;4728;-57
2023/10/09 12:47:53;;;;;;;;;;;;;;;21.04;51.38;96221.19;10440888;28;2111;-57
2023/10/09 12:52:55;;;;;;;;;;;;;;;21.04;51.38;96224.59;10445700;28;1894;-57
2023/10/09 12:58:00;;;;;;;;;;;;;;;21.04;51.15;96221.97;10440869;28;1982;-56
2023/10/09 13:03:01;;;;;;;;;;;;;;;21.04;51.31;96224.59;10444465;28;2498;-56
2023/10/09 13:08:01;;;;;;;;;;;;;;;21.03;51.49;96220.41;10441661;28;1890;-55
2023/10/09 13:13:06;;;;;;;;;;;;;;;21.04;51.65;96216.69;10443050;28;1946;-55
2023/10/09 13:18:06;;;;;;;;;;;;;;;21.05;52.03;96225.38;10443615;28;1977;-56
2023/10/09 13:23:07;;;;;;;;;;;;;;;21.07;52.39;96233.81;10445950;28;1870;-57
2023/10/09 13:28:07;;;;;;;;;;;;;;;21.07;53.13;96223.28;10439491;28;2287;-55
2023/10/09 13:33:07;;;;;;;;;;;;;;;21.11;52.78;96234.06;10441957;28;2232;-56
2023/10/09 13:38:09;;;;;;;;;;;;;;;21.12;53.21;96225.13;10439965;28;1971;-56
2023/10/09 13:43:16;;;;;;;;;;;;;;;21.12;53.37;96230.41;10446207;28;4646;-55
2023/10/09 13:48:17;;;;;;;;;;;;;;;21.14;53.62;96233.56;10445388;28;2562;-56
2023/10/09 13:53:17;;;;;;;;;;;;;;;21.12;53.58;96238.31;10441950;28;1570;-53
2023/10/09 13:58:20;;;;;;;;;;;;;;;21.13;53.91;96245.94;10443711;28;1971;-57
2023/10/09 14:03:23;;;;;;;;;;;;;;;21.14;53.95;96244.91;10444630;28;1825;-55
2023/10/09 14:08:24;;;;;;;;;;;;;;;21.14;53.79;96201.94;10440234;28;1701;-56
2023/10/09 14:13:28;;;;;;;;;;;;;;;21.12;53.87;96180.31;10441078;28;1527;-61
2023/10/09 14:18:29;;;;;;;;;;;;;;;21.12;53.67;96181.13;10436266;28;1913;-58
2023/10/09 14:23:34;;;;;;;;;;;;;;;21.12;53.90;96160.03;10439932;28;1513;-56
2023/10/09 14:28:34;;;;;;;;;;;;;;;21.13;53.91;96169.50;10438439;28;1551;-57
2023/10/09 14:33:36;;;;;;;;;;;;;;;21.14;53.77;96162.38;10437581;28;2612;-57
2023/10/09 14:38:38;;;;;;;;;;;;;;;21.14;53.66;96165.03;10440782;28;1979;-57
2023/10/09 14:43:38;;;;;;;;;;;;;;;21.15;53.58;96148.13;10438111;28;4634;-56
2023/10/09 14:48:39;;;;;;;;;;;;;;;21.16;53.87;96176.09;10437298;28;1881;-56
2023/10/09 14:53:40;;;;;;;;;;;;;;;21.16;53.96;96173.44;10443958;28;1523;-55
2023/10/09 14:58:40;;;;;;;;;;;;;;;21.16;53.46;96173.44;10440951;28;1971;-54
2023/10/09 15:03:41;;;;;;;;;;;;;;;21.16;53.78;96174.25;10440444;28;1748;-56
2023/10/09 15:08:41;;;;;;;;;;;;;;;21.17;53.58;96177.66;10438021;28;1915;-56
2023/10/09 15:13:42;;;;;;;;;;;;;;;21.17;53.41;96186.34;10434340;28;1792;-56
2023/10/09 15:18:42;;;;;;;;;;;;;;;21.16;53.66;96182.16;10443679;28;2879;-56
2023/10/09 15:23:43;;;;;;;;;;;;;;;21.17;53.71;96186.34;10436085;28;1850;-56
2023/10/09 15:28:43;;;;;;;;;;;;;;;21.16;53.47;96186.63;10429895;28;1898;-57
2023/10/09 15:33:43;;;;;;;;;;;;;;;21.17;53.50;96177.66;10432611;28;1819;-54
2023/10/09 15:38:43;;;;;;;;;;;;;;;21.15;53.34;96154.19;10433265;28;2269;-55
2023/10/09 15:43:45;;;;;;;;;;;;;;;21.16;53.27;96144.44;10437718;28;4724;-56
2023/10/09 15:48:46;;;;;;;;;;;;;;;21.16;53.26;96139.19;10440393;28;1826;-56
2023/10/09 15:53:46;;;;;;;;;;;;;;;21.13;53.38;96132.59;10433265;28;1889;-58
2023/10/09 15:58:46;;;;;;;;;;;;;;;21.15;53.27;96129.69;10439660;28;1971;-57
2023/10/09 16:03:50;;;;;;;;;;;;;;;21.14;52.83;96122.84;10435629;28;1826;-58
2023/10/09 16:08:50;;;;;;;;;;;;;;;21.16;52.79;96123.38;10417758;28;2610;-55
2023/10/09 16:13:50;;;;;;;;;;;;;;;21.12;52.46;96114.41;10432830;28;1983;-56
2023/10/09 16:18:51;;;;;;;;;;;;;;;21.09;52.08;96139.44;10434554;28;1941;-56
2023/10/09 16:23:53;;;;;;;;;;;;;;;21.09;52.09;96139.44;10438938;28;1842;-54
2023/10/09 16:28:54;;;;;;;;;;;;;;;21.05;51.52;96126.03;10435146;28;1897;-54
2023/10/09 16:33:54;;;;;;;;;;;;;;;21.03;51.61;96128.13;10436274;28;1913;-55
2023/10/09 16:38:55;;;;;;;;;;;;;;;21.05;52.01;96133.13;10431018;28;2021;-55
2023/10/09 16:43:59;;;;;;;;;;;;;;;21.05;52.01;96128.66;10433545;28;4649;-53
2023/10/09 16:49:04;;;;;;;;;;;;;;;21.05;51.81;96128.66;10433746;28;1889;-54
2023/10/09 16:54:04;;;;;;;;;;;;;;;21.06;51.94;96126.81;10434938;28;2526;-56
2023/10/09 16:59:05;;;;;;;;;;;;;;;21.06;51.66;96127.59;10438805;28;1997;-57
2023/10/09 17:04:05;;;;;;;;;;;;;;;21.06;51.70;96135.50;10435047;28;1908;-56
2023/10/09 17:09:10;;;;;;;;;;;;;;;21.06;51.84;96135.50;10441546;28;1877;-52
2023/10/09 17:14:12;;;;;;;;;;;;;;;21.06;51.92;96124.97;10442499;28;1966;-56
2023/10/09 17:19:14;;;;;;;;;;;;;;;21.06;51.86;96119.69;10432882;28;1899;-56
2023/10/09 17:24:14;;;;;;;;;;;;;;;21.06;51.65;96132.88;10441616;28;1835;-56
2023/10/09 17:29:16;;;;;;;;;;;;;;;21.07;51.85;96133.66;10439145;28;1900;-54
2023/10/09 17:34:17;;;;;;;;;;;;;;;21.06;51.70;96122.31;10431730;28;1834;-56
2023/10/09 17:39:25;;;;;;;;;;;;;;;21.07;51.85;96123.13;10433545;28;2539;-54
2023/10/09 17:44:27;;;;;;;;;;;;;;;21.06;51.76;96122.31;10430468;28;4713;-55
2023/10/09 17:49:27;;;;;;;;;;;;;;;21.06;51.67;96127.59;10436649;28;1861;-54
2023/10/09 17:54:27;;;;;;;;;;;;;;;21.06;51.69;96122.31;10437399;28;1953;-54
2023/10/09 17:59:28;;;;;;;;;;;;;;;21.06;51.71;96117.06;10439142;28;2074;-56
2023/10/09 18:04:35;;;;;;;;;;;;;;;21.07;51.77;96117.84;10432905;28;2397;-56
2023/10/09 18:09:35;;;;;;;;;;;;;;;21.08;51.54;96118.66;10437116;28;1889;-55
2023/10/09 18:14:35;;;;;;;;;;;;;;;21.06;51.61;96117.06;10434804;28;1881;-59
2023/10/09 18:19:38;;;;;;;;;;;;;;;21.07;51.57;96115.22;10436142;28;2096;-55
2023/10/09 18:24:40;;;;;;;;;;;;;;;21.06;51.69;96124.97;10438529;28;2532;-56
2023/10/09 18:29:48;;;;;;;;;;;;;;;21.06;51.50;96118.91;10438600;28;1890;-56
2023/10/09 18:34:48;;;;;;;;;;;;;;;21.06;51.48;96132.88;10436852;28;2059;-56
2023/10/09 18:39:48;;;;;;;;;;;;;;;21.06;51.48;96127.59;10440198;28;2280;-58
2023/10/09 18:44:49;;;;;;;;;;;;;;;21.05;51.44;96126.03;10440363;28;4677;-57
2023/10/09 18:49:50;;;;;;;;;;;;;;;21.06;51.33;96126.81;10435987;28;1977;-56
2023/10/09 18:54:50;;;;;;;;;;;;;;;21.06;51.73;96134.72;10436550;28;1858;-56
2023/10/09 18:59:51;;;;;;;;;;;;;;;21.06;51.50;96132.88;10438764;28;1918;-57
2023/10/09 19:04:52;;;;;;;;;;;;;;;21.06;51.83;96127.59;10436617;28;1831;-57
2023/10/09 19:09:55;;;;;;;;;;;;;;;21.05;51.78;96131.31;10438452;28;2753;-58
2023/10/09 19:14:55;;;;;;;;;;;;;;;21.05;51.42;96128.66;10435273;28;1952;-57
2023/10/09 19:19:57;;;;;;;;;;;;;;;21.06;51.77;96132.88;10437813;28;1894;-58
2023/10/09 19:24:58;;;;;;;;;;;;;;;21.06;51.72;96137.38;10437085;28;1905;-58
2023/10/09 19:30:00;;;;;;;;;;;;;;;21.06;51.77;96140.78;10440837;28;1834;-57
2023/10/09 19:35:02;;;;;;;;;;;;;;;21.06;51.64;96132.09;10434434;28;1882;-56
2023/10/09 19:40:09;;;;;;;;;;;;;;;21.05;51.41;96126.03;10431932;28;2117;-56
2023/10/09 19:45:10;;;;;;;;;;;;;;;21.05;51.67;96131.31;10434030;28;1901;-55
2023/10/09 19:50:14;;;;;;;;;;;;;;;21.06;51.26;96140.00;10437880;28;1906;-57
2023/10/09 19:55:14;;;;;;;;;;;;;;;21.05;51.57;96141.84;10434000;28;2913;-57
2023/10/09 20:00:21;;;;;;;;;;;;;;;21.06;51.49;96135.50;10436992;28;2065;-58
2023/10/09 20:05:22;;;;;;;;;;;;;;;21.06;51.44;96140.00;10436648;28;1957;-58
2023/10/09 20:10:22;;;;;;;;;;;;;;;21.05;51.34;96141.84;10440545;28;1812;-57
2023/10/09 20:15:25;;;;;;;;;;;;;;;21.06;51.07;96142.63;10437878;28;1863;-57
2023/10/09 20:20:26;;;;;;;;;;;;;;;21.04;51.23;96136.84;10432524;28;1989;-57
2023/10/09 20:25:27;;;;;;;;;;;;;;;21.05;51.09;96152.38;10435414;28;2141;-58
2023/10/09 20:30:28;;;;;;;;;;;;;;;21.05;51.80;96149.75;10438165;28;2023;-58
2023/10/09 20:35:28;;;;;;;;;;;;;;;21.06;52.10;96153.94;10443882;28;1895;-58
2023/10/09 20:40:28;;;;;;;;;;;;;;;21.06;52.33;96159.22;10439599;28;4657;-57
2023/10/09 20:45:29;;;;;;;;;;;;;;;21.08;52.14;96162.38;10438495;28;1881;-57
2023/10/09 20:50:29;;;;;;;;;;;;;;;21.09;52.41;96171.09;10445558;28;1874;-58
2023/10/09 20:55:29;;;;;;;;;;;;;;;21.10;52.49;96174.53;10444194;28;2053;-58
2023/10/09 21:00:32;;;;;;;;;;;;;;;21.10;52.44;96172.69;10441902;28;1968;-58
2023/10/09 21:05:33;;;;;;;;;;;;;;;21.11;52.42;96186.63;10437925;28;1842;-56
2023/10/09 21:10:36;;;;;;;;;;;;;;;21.11;52.58;96184.78;10436103;28;1790;-57
2023/10/09 21:15:37;;;;;;;;;;;;;;;21.12;52.40;96198.78;10424142;28;1874;-59
2023/10/09 21:20:38;;;;;;;;;;;;;;;21.11;52.32;96194.53;10440353;28;1906;-56
2023/10/09 21:25:38;;;;;;;;;;;;;;;21.09;52.62;96192.16;10437338;28;2797;-57
2023/10/09 21:30:38;;;;;;;;;;;;;;;21.12;52.11;96204.03;10437310;28;1878;-58
2023/10/09 21:35:40;;;;;;;;;;;;;;;21.11;52.40;96191.91;10443718;28;1862;-57
2023/10/09 21:40:40;;;;;;;;;;;;;;;21.10;52.33;96193.78;10439100;28;4714;-57
2023/10/09 21:45:44;;;;;;;;;;;;;;;21.10;52.10;96201.69;10441949;28;1973;-58
2023/10/09 21:50:44;;;;;;;;;;;;;;;21.11;52.26;96199.81;10442099;28;1802;-57
2023/10/09 21:55:45;;;;;;;;;;;;;;;21.10;52.33;96201.69;10435492;28;1754;-58
2023/10/09 22:00:46;;;;;;;;;;;;;;;21.10;51.94;96198.25;10442467;28;1910;-56
2023/10/09 22:05:47;;;;;;;;;;;;;;;21.10;52.14;96200.88;10440100;28;1759;-58
2023/10/09 22:10:47;;;;;;;;;;;;;;;21.10;52.11;96196.41;10438338;28;2805;-57
2023/10/09 22:15:48;;;;;;;;;;;;;;;21.09;51.86;96200.09;10441433;28;2061;-55
2023/10/09 22:20:48;;;;;;;;;;;;;;;21.08;52.19;96206.44;10440982;28;2069;-57
2023/10/09 22:25:55;;;;;;;;;;;;;;;21.09;51.90;96205.34;10440913;28;1859;-57
2023/10/09 22:31:01;;;;;;;;;;;;;;;21.10;51.89;96208.78;10438615;28;2014;-57
2023/10/09 22:36:01;;;;;;;;;;;;;;;21.10;52.03;96208.78;10439470;28;1905;-56
2023/10/09 22:41:06;;;;;;;;;;;;;;;21.10;51.96;96206.16;10436126;28;4586;-58
2023/10/09 22:46:07;;;;;;;;;;;;;;;21.08;51.70;96197.72;10435471;28;2026;-58
2023/10/09 22:51:10;;;;;;;;;;;;;;;21.08;51.61;96192.44;10437439;28;1959;-57
2023/10/09 22:56:12;;;;;;;;;;;;;;;21.08;51.66;96189.81;10438266;28;2872;-57
2023/10/09 23:01:12;;;;;;;;;;;;;;;21.06;51.87;96188.22;10437468;28;1953;-58
2023/10/09 23:06:16;;;;;;;;;;;;;;;21.07;51.74;96199.56;10438757;28;1955;-58
2023/10/09 23:11:25;;;;;;;;;;;;;;;21.07;51.73;96191.66;10440690;28;1893;-57
2023/10/09 23:16:33;;;;;;;;;;;;;;;21.06;51.41;96201.41;10441679;28;2020;-57
2023/10/09 23:26:53;;;;;;;;;;;;;;;21.06;51.71;96204.03;10440343;28;2023;-57
2023/10/09 23:32:21;;;;;;;;;;;;;;;21.06;51.73;96217.22;10436985;28;1960;-57
2023/10/09 23:37:14;;;;;;;;;;;;;;;21.06;51.51;96219.06;10434867;28;1960;-57
2023/10/09 23:42:25;;;;;;;;;;;;;;;21.05;51.60;96218.28;10439880;28;4765;-56
2023/10/09 23:47:26;;;;;;;;;;;;;;;21.05;51.53;96223.56;10436044;28;1952;-58
2023/10/09 23:52:28;;;;;;;;;;;;;;;21.06;51.43;96226.97;10439071;28;1859;-57
2023/10/09 23:57:29;;;;;;;;;;;;;;;21.06;51.49;96227.75;10437175;28;1910;-56
